Time;durP1;ratioP1;P1;durP2;ratioP2;P2;SDS_P1;SDS_P2;PMS_P1;PMS_P2;Temp;Humidity;BMP_temperature;BMP_pressure;BME280_temperature;BME280_humidity;BME280_pressure;Samples;Min_cycle;Max_cycle;Signal;HPM_P1;HPM_P2
2021/06/30 00:01:38;;;;;;;27.52;16.30;;;15.30;99.90;;;;;;5014394;28;20456;-74
2021/06/30 00:04:04;;;;;;;26.92;14.85;;;15.30;99.90;;;;;;5022373;28;20037;-74
2021/06/30 00:06:31;;;;;;;21.95;15.98;;;15.20;99.90;;;;;;5033322;28;20037;-74
2021/06/30 00:08:57;;;;;;;26.02;16.50;;;15.20;99.90;;;;;;5032766;28;20041;-74
2021/06/30 00:11:26;;;;;;;25.98;18.40;;;15.20;99.90;;;;;;5033008;28;20313;-74
2021/06/30 00:13:53;;;;;;;29.10;18.15;;;15.20;99.90;;;;;;5015425;28;20036;-74
2021/06/30 00:16:19;;;;;;;28.80;17.67;;;15.30;99.90;;;;;;5011513;28;20046;-74
2021/06/30 00:18:47;;;;;;;31.13;19.05;;;15.30;99.90;;;;;;5013750;28;20038;-73
2021/06/30 00:21:13;;;;;;;29.20;17.52;;;15.30;99.90;;;;;;4995196;28;20037;-74
2021/06/30 00:23:39;;;;;;;29.15;18.58;;;15.30;99.90;;;;;;5015088;28;20030;-73
2021/06/30 00:26:07;;;;;;;28.73;17.08;;;15.20;99.90;;;;;;5032658;28;20036;-73
2021/06/30 00:28:33;;;;;;;27.58;18.20;;;15.20;99.90;;;;;;5027577;28;20459;-73
2021/06/30 00:30:59;;;;;;;29.83;17.67;;;15.20;99.90;;;;;;5012884;28;20053;-73
2021/06/30 00:33:26;;;;;;;28.73;17.38;;;15.10;99.90;;;;;;5022792;28;20030;-72
2021/06/30 00:35:52;;;;;;;25.88;16.65;;;15.10;99.90;;;;;;5022936;28;20025;-72
2021/06/30 00:38:18;;;;;;;28.88;16.67;;;15.10;99.90;;;;;;5017427;28;20048;-73
2021/06/30 00:40:45;;;;;;;29.05;18.80;;;15.10;99.90;;;;;;5027196;28;20372;-72
2021/06/30 00:43:12;;;;;;;36.25;19.63;;;15.20;99.90;;;;;;5017061;28;20040;-72
2021/06/30 00:45:38;;;;;;;26.23;17.27;;;15.20;99.90;;;;;;5013442;28;20046;-73
2021/06/30 00:48:04;;;;;;;28.88;17.48;;;15.20;99.90;;;;;;5021347;28;20056;-73
2021/06/30 00:50:31;;;;;;;25.65;16.67;;;15.10;99.90;;;;;;5013699;28;20042;-74
2021/06/30 00:52:57;;;;;;;25.48;15.63;;;15.10;99.90;;;;;;5030529;28;20411;-73
2021/06/30 00:55:23;;;;;;;25.08;14.93;;;14.90;99.90;;;;;;5032399;28;20406;-73
2021/06/30 00:57:50;;;;;;;25.67;14.25;;;14.80;99.90;;;;;;5032206;28;20399;-74
2021/06/30 01:00:17;;;;;;;24.30;15.05;;;14.70;99.90;;;;;;5030731;28;20037;-73
2021/06/30 01:02:44;;;;;;;28.67;17.17;;;14.70;99.90;;;;;;5013485;28;20030;-73
2021/06/30 01:05:10;;;;;;;25.23;16.75;;;14.80;99.90;;;;;;5016149;28;20037;-74
2021/06/30 01:07:36;;;;;;;29.98;17.60;;;14.90;99.90;;;;;;5032038;28;20494;-74
2021/06/30 01:10:04;;;;;;;32.55;18.92;;;14.90;99.90;;;;;;5032319;28;20390;-73
2021/06/30 01:12:31;;;;;;;35.53;19.95;;;14.90;99.90;;;;;;5014246;28;20033;-74
2021/06/30 01:15:03;;;;;;;35.15;19.65;;;14.90;99.90;;;;;;5011674;28;20034;-74
2021/06/30 01:17:29;;;;;;;31.15;18.73;;;15.00;99.90;;;;;;5030411;28;20052;-74
2021/06/30 01:19:56;;;;;;;29.63;18.30;;;15.10;99.90;;;;;;5031262;28;20459;-73
2021/06/30 01:22:24;;;;;;;26.90;18.08;;;15.00;99.90;;;;;;5012869;28;20053;-74
2021/06/30 01:24:52;;;;;;;28.27;18.85;;;15.00;99.90;;;;;;5030946;28;20029;-73
2021/06/30 01:27:23;;;;;;;25.15;16.65;;;14.90;99.90;;;;;;4996994;28;20048;-73
2021/06/30 01:29:49;;;;;;;;;;;14.80;99.90;;;;;;5032325;28;20034;-73
2021/06/30 01:32:15;;;;;;;21.98;14.93;;;14.80;99.90;;;;;;5030283;28;19909;-73
2021/06/30 01:34:42;;;;;;;22.73;14.88;;;14.80;99.90;;;;;;5024640;28;20048;-73
2021/06/30 01:37:08;;;;;;;22.38;15.13;;;14.80;99.90;;;;;;5031320;28;20056;-73
2021/06/30 01:39:34;;;;;;;25.17;15.55;;;14.80;99.90;;;;;;5034689;28;20032;-74
2021/06/30 01:42:01;;;;;;;24.73;15.23;;;14.80;99.90;;;;;;5028552;28;20464;-75
2021/06/30 01:44:27;;;;;;;25.25;15.13;;;14.90;99.90;;;;;;5016621;28;20073;-73
2021/06/30 01:46:53;;;;;;;26.23;16.23;;;14.80;99.90;;;;;;5039132;28;20049;-73
2021/06/30 01:49:20;;;;;;;22.60;15.68;;;14.80;99.90;;;;;;5039734;28;20045;-74
2021/06/30 01:51:47;;;;;;;26.05;17.05;;;14.90;99.90;;;;;;5035136;28;20495;-74
2021/06/30 01:54:15;;;;;;;26.75;16.77;;;14.90;99.90;;;;;;5018364;28;20038;-73
2021/06/30 01:56:46;;;;;;;27.77;17.35;;;14.90;99.90;;;;;;5026582;28;20040;-74
2021/06/30 01:59:14;;;;;;;33.35;18.38;;;14.90;99.90;;;;;;5027800;28;20038;-73
2021/06/30 02:01:42;;;;;;;31.98;17.73;;;14.90;99.90;;;;;;5026871;28;20406;-72
2021/06/30 02:04:09;;;;;;;33.53;19.08;;;15.00;99.90;;;;;;5026806;28;20042;-73
2021/06/30 02:06:41;;;;;;;40.05;18.50;;;15.00;99.90;;;;;;5015362;28;20041;-74
2021/06/30 02:09:10;;;;;;;27.85;17.15;;;15.10;99.90;;;;;;5032692;28;20037;-74
2021/06/30 02:11:37;;;;;;;20.98;13.18;;;15.10;99.90;;;;;;5034866;28;20033;-74
2021/06/30 02:14:06;;;;;;;15.35;10.98;;;15.10;99.90;;;;;;5034864;28;20034;-73
2021/06/30 02:16:34;;;;;;;14.40;9.38;;;15.10;99.90;;;;;;5018742;28;20046;-73
2021/06/30 02:19:06;;;;;;;16.67;9.73;;;15.00;99.90;;;;;;5015938;28;20406;-73
2021/06/30 02:21:34;;;;;;;14.93;8.98;;;15.00;99.90;;;;;;5028559;28;20032;-73
2021/06/30 02:24:00;;;;;;;19.77;8.98;;;14.90;99.90;;;;;;5034313;28;20041;-74
2021/06/30 02:26:28;;;;;;;14.15;9.18;;;15.00;99.90;;;;;;5019902;28;20049;-74
2021/06/30 02:28:55;;;;;;;14.00;8.82;;;14.90;99.90;;;;;;5034443;28;20029;-74
2021/06/30 02:31:23;;;;;;;15.95;9.77;;;14.90;99.90;;;;;;5035031;28;20060;-74
2021/06/30 02:33:50;;;;;;;14.13;9.38;;;14.90;99.90;;;;;;5034920;28;20025;-74
2021/06/30 02:36:17;;;;;;;16.88;8.60;;;14.70;99.90;;;;;;5021387;28;20049;-75
2021/06/30 02:38:44;;;;;;;13.25;9.27;;;14.70;99.90;;;;;;5016692;28;20468;-74
2021/06/30 02:41:10;;;;;;;16.55;10.25;;;14.70;99.90;;;;;;5015567;28;20037;-74
2021/06/30 02:43:36;;;;;;;17.70;11.23;;;14.70;99.90;;;;;;5016417;28;20034;-74
2021/06/30 02:46:03;;;;;;;16.35;10.65;;;14.70;99.90;;;;;;5023851;28;20046;-73
2021/06/30 02:48:30;;;;;;;20.60;11.55;;;14.70;99.90;;;;;;5025774;28;20057;-73
2021/06/30 02:50:56;;;;;;;19.73;11.57;;;14.80;99.90;;;;;;5026368;28;20033;-73
2021/06/30 02:53:22;;;;;;;22.10;11.90;;;14.70;99.90;;;;;;5037082;28;20050;-74
2021/06/30 02:55:49;;;;;;;18.85;11.43;;;14.70;99.90;;;;;;5042427;28;20046;-75
2021/06/30 02:58:15;;;;;;;18.25;11.45;;;14.80;99.90;;;;;;5029710;28;20243;-74
2021/06/30 03:00:41;;;;;;;16.70;10.40;;;14.70;99.90;;;;;;5035545;28;20041;-74
2021/06/30 03:03:08;;;;;;;17.25;10.05;;;14.70;99.90;;;;;;5034082;28;20036;-74
2021/06/30 03:05:35;;;;;;;15.77;11.50;;;14.70;99.90;;;;;;5026116;28;20048;-74
2021/06/30 03:08:01;;;;;;;21.88;12.43;;;14.70;99.90;;;;;;5017936;28;20040;-74
2021/06/30 03:10:27;;;;;;;18.85;13.40;;;14.80;99.90;;;;;;5032040;28;20505;-74
2021/06/30 03:12:53;;;;;;;20.40;12.68;;;14.80;99.90;;;;;;5014291;28;20049;-75
2021/06/30 03:15:20;;;;;;;19.42;13.13;;;14.90;99.90;;;;;;5026051;28;20083;-75
2021/06/30 03:17:46;;;;;;;20.10;13.65;;;15.00;99.90;;;;;;5033727;28;20061;-75
2021/06/30 03:20:15;;;;;;;17.13;11.30;;;15.00;99.90;;;;;;5021863;28;20045;-73
2021/06/30 03:22:42;;;;;;;11.52;10.05;;;15.00;99.90;;;;;;5034596;28;20033;-75
2021/06/30 03:25:10;;;;;;;14.93;10.77;;;15.00;99.90;;;;;;5033267;28;20025;-74
2021/06/30 03:27:38;;;;;;;12.20;9.80;;;14.90;99.90;;;;;;5016702;28;20193;-75
2021/06/30 03:30:08;;;;;;;12.65;9.68;;;14.80;99.90;;;;;;5010656;28;20481;-75
2021/06/30 03:32:35;;;;;;;13.57;10.23;;;14.80;99.90;;;;;;5034510;28;20034;-76
2021/06/30 03:35:03;;;;;;;12.35;9.52;;;14.80;99.90;;;;;;5024328;28;20057;-74
2021/06/30 03:37:29;;;;;;;11.73;10.10;;;14.80;99.90;;;;;;5020570;28;20036;-75
2021/06/30 03:39:55;;;;;;;14.02;9.68;;;14.80;99.90;;;;;;5025900;28;20061;-75
2021/06/30 03:42:21;;;;;;;12.75;10.55;;;14.80;99.90;;;;;;5014702;28;20041;-74
2021/06/30 03:44:47;;;;;;;14.20;10.95;;;14.80;99.90;;;;;;5025823;28;20053;-74
2021/06/30 03:47:14;;;;;;;12.25;9.63;;;14.80;99.90;;;;;;5033014;28;20045;-75
2021/06/30 03:49:40;;;;;;;11.10;8.02;;;14.90;99.90;;;;;;5032619;28;20049;-76
2021/06/30 03:52:06;;;;;;;11.55;7.90;;;14.90;99.90;;;;;;5032989;28;20038;-75
2021/06/30 03:54:33;;;;;;;7.80;5.97;;;14.90;99.90;;;;;;5032851;28;20017;-76
2021/06/30 03:56:59;;;;;;;6.82;5.45;;;14.90;99.90;;;;;;5032948;28;20132;-75
2021/06/30 03:59:25;;;;;;;5.93;5.20;;;15.00;99.90;;;;;;5024460;28;20049;-76
2021/06/30 04:01:52;;;;;;;6.93;5.63;;;15.00;99.90;;;;;;5032063;28;20033;-75
2021/06/30 04:04:21;;;;;;;5.82;4.22;;;15.00;99.90;;;;;;5032426;28;20033;-77
2021/06/30 04:06:47;;;;;;;4.68;3.85;;;15.10;99.90;;;;;;5033371;28;20037;-75
2021/06/30 04:09:16;;;;;;;5.07;3.97;;;15.10;99.90;;;;;;5031627;28;20040;-75
2021/06/30 04:11:42;;;;;;;5.28;3.38;;;15.10;99.90;;;;;;5033877;28;20377;-77
2021/06/30 04:14:09;;;;;;;3.58;3.03;;;15.20;99.90;;;;;;5032892;28;20025;-75
2021/06/30 04:16:39;;;;;;;4.60;2.85;;;15.20;99.90;;;;;;5019752;28;20065;-76
2021/06/30 04:19:05;;;;;;;6.40;3.47;;;15.20;99.90;;;;;;5027145;28;20478;-75
2021/06/30 04:21:32;;;;;;;4.05;3.38;;;15.30;99.90;;;;;;5032769;28;20128;-75
2021/06/30 04:23:58;;;;;;;3.60;2.72;;;15.40;99.90;;;;;;5011895;28;20045;-74
2021/06/30 04:26:25;;;;;;;7.22;2.65;;;15.40;99.90;;;;;;5013899;28;20041;-76
2021/06/30 04:28:51;;;;;;;4.30;2.45;;;15.40;99.90;;;;;;5013874;28;20407;-76
2021/06/30 04:31:18;;;;;;;3.08;2.30;;;15.40;99.90;;;;;;5029415;28;20650;-76
2021/06/30 04:33:44;;;;;;;3.95;2.40;;;15.50;99.90;;;;;;5018215;28;20040;-76
2021/06/30 04:36:10;;;;;;;5.30;2.70;;;15.60;99.90;;;;;;5032960;28;20478;-76
2021/06/30 04:38:37;;;;;;;6.93;2.92;;;15.90;99.90;;;;;;5036937;28;20064;-75
2021/06/30 04:41:03;;;;;;;6.32;2.40;;;15.80;99.90;;;;;;5018628;28;20482;-76
2021/06/30 04:43:29;;;;;;;5.22;3.20;;;15.60;99.90;;;;;;5014925;28;20042;-77
2021/06/30 04:45:55;;;;;;;4.75;3.70;;;15.60;99.90;;;;;;5025689;28;20082;-77
2021/06/30 04:48:22;;;;;;;7.45;2.70;;;15.50;99.90;;;;;;4999777;28;20046;-77
2021/06/30 04:50:48;;;;;;;4.57;2.30;;;15.60;99.90;;;;;;5024254;28;20042;-77
2021/06/30 04:53:14;;;;;;;6.40;2.92;;;15.60;99.90;;;;;;5020485;28;20037;-76
2021/06/30 04:55:40;;;;;;;7.60;3.45;;;15.60;99.90;;;;;;5022996;28;20051;-76
2021/06/30 04:58:07;;;;;;;5.85;2.42;;;15.60;99.90;;;;;;5018109;28;20049;-77
2021/06/30 05:00:34;;;;;;;6.85;2.55;;;15.40;99.90;;;;;;5018550;28;20050;-76
2021/06/30 05:03:00;;;;;;;5.40;2.45;;;15.30;99.90;;;;;;5013409;28;20034;-76
2021/06/30 05:05:26;;;;;;;4.20;1.90;;;15.30;99.90;;;;;;5025846;28;20390;-76
2021/06/30 05:07:52;;;;;;;6.15;1.58;;;15.30;99.90;;;;;;5021716;28;20385;-76
2021/06/30 05:10:19;;;;;;;9.70;2.70;;;15.30;99.90;;;;;;5030251;28;20308;-76
2021/06/30 05:12:45;;;;;;;6.43;1.45;;;15.30;99.90;;;;;;5028426;28;20045;-76
2021/06/30 05:15:11;;;;;;;2.80;1.58;;;15.30;99.90;;;;;;5024913;28;20466;-77
2021/06/30 05:17:37;;;;;;;5.88;2.05;;;15.30;99.90;;;;;;5027850;28;20061;-76
2021/06/30 05:20:05;;;;;;;3.63;1.88;;;15.30;99.90;;;;;;5031038;28;20041;-75
2021/06/30 05:22:31;;;;;;;3.88;1.60;;;15.40;99.90;;;;;;5027641;28;20033;-76
2021/06/30 05:24:58;;;;;;;2.42;1.40;;;15.30;99.90;;;;;;5021181;28;20037;-76
2021/06/30 05:27:24;;;;;;;5.82;1.70;;;15.20;99.90;;;;;;5021832;28;20030;-76
2021/06/30 05:29:50;;;;;;;2.88;1.73;;;15.20;99.90;;;;;;5013702;28;20467;-77
2021/06/30 05:32:16;;;;;;;4.55;1.95;;;15.20;99.90;;;;;;5013409;28;20030;-77
2021/06/30 05:34:43;;;;;;;3.47;2.10;;;15.20;99.90;;;;;;5025302;28;20029;-76
2021/06/30 05:37:10;;;;;;;5.63;1.90;;;15.10;99.90;;;;;;5012680;28;20037;-77
2021/06/30 05:39:36;;;;;;;2.72;1.67;;;15.10;99.90;;;;;;5012971;28;20033;-77
2021/06/30 05:42:02;;;;;;;5.85;1.55;;;15.20;99.90;;;;;;5019719;28;20387;-78
2021/06/30 05:44:29;;;;;;;2.80;1.20;;;15.10;99.90;;;;;;5031730;28;20052;-78
2021/06/30 05:46:55;;;;;;;1.95;1.00;;;15.10;99.90;;;;;;5031669;28;20442;-77
2021/06/30 05:49:21;;;;;;;5.13;1.48;;;15.10;99.90;;;;;;5029773;28;20045;-77
2021/06/30 05:51:47;;;;;;;3.55;1.45;;;15.10;99.90;;;;;;5032109;28;20037;-78
2021/06/30 05:54:13;;;;;;;3.20;1.10;;;15.10;99.90;;;;;;5029870;28;20028;-77
2021/06/30 05:56:40;;;;;;;2.45;0.82;;;15.10;99.90;;;;;;5018500;28;20037;-77
2021/06/30 05:59:06;;;;;;;2.67;1.05;;;15.10;99.90;;;;;;5015353;28;20098;-76
2021/06/30 06:01:32;;;;;;;2.00;1.17;;;15.10;99.90;;;;;;5031477;28;20490;-76
2021/06/30 06:03:59;;;;;;;1.55;1.08;;;15.20;99.90;;;;;;5031867;28;20033;-77
2021/06/30 06:06:27;;;;;;;2.40;1.13;;;15.20;99.90;;;;;;5031202;28;20033;-76
2021/06/30 06:08:53;;;;;;;1.83;1.00;;;15.10;99.90;;;;;;5028812;28;20068;-76
2021/06/30 06:11:19;;;;;;;1.50;0.95;;;15.10;99.90;;;;;;5019749;28;20031;-76
2021/06/30 06:13:46;;;;;;;2.28;1.00;;;15.20;99.90;;;;;;5022709;28;20040;-76
2021/06/30 06:16:14;;;;;;;4.13;1.30;;;15.20;99.90;;;;;;5024146;28;20049;-77
2021/06/30 06:18:41;;;;;;;1.58;1.08;;;15.20;99.90;;;;;;5013107;28;20033;-76
2021/06/30 06:21:07;;;;;;;5.07;1.10;;;15.30;99.90;;;;;;5013960;28;20041;-78
2021/06/30 06:23:35;;;;;;;2.92;0.93;;;15.30;99.90;;;;;;5031739;28;20030;-78
2021/06/30 06:26:01;;;;;;;2.13;1.05;;;15.40;99.90;;;;;;5035084;28;20030;-75
2021/06/30 06:28:33;;;;;;;1.92;1.00;;;15.40;99.90;;;;;;5026284;28;20034;-77
2021/06/30 06:31:04;;;;;;;3.15;1.40;;;15.40;99.90;;;;;;5018818;28;20056;-77
2021/06/30 06:33:30;;;;;;;2.70;0.80;;;15.50;99.90;;;;;;5035326;28;20048;-77
2021/06/30 06:35:57;;;;;;;4.00;1.10;;;15.50;99.90;;;;;;5025721;28;20026;-77
2021/06/30 06:38:23;;;;;;;2.40;0.80;;;15.70;99.90;;;;;;5022852;28;20387;-77
2021/06/30 06:40:51;;;;;;;1.83;1.00;;;15.80;99.90;;;;;;5016102;28;20045;-77
2021/06/30 06:43:17;;;;;;;4.05;1.00;;;15.90;99.90;;;;;;5015604;28;20049;-79
2021/06/30 06:45:44;;;;;;;4.82;1.42;;;16.10;99.90;;;;;;5022242;28;20052;-78
2021/06/30 06:48:10;;;;;;;1.75;0.93;;;16.20;99.90;;;;;;5019538;28;20041;-79
2021/06/30 06:50:37;;;;;;;2.45;0.90;;;16.40;99.90;;;;;;5034698;28;20033;-80
2021/06/30 06:53:03;;;;;;;1.40;1.30;;;16.60;99.90;;;;;;5033636;28;20033;-80
2021/06/30 06:55:31;;;;;;;2.20;0.63;;;16.80;99.90;;;;;;5034590;28;20041;-81
2021/06/30 06:57:59;;;;;;;1.23;0.77;;;16.60;99.90;;;;;;5023397;28;20045;-81
2021/06/30 07:00:25;;;;;;;3.30;1.02;;;16.50;99.90;;;;;;5024780;28;20410;-79
2021/06/30 07:02:51;;;;;;;1.92;0.93;;;16.50;99.90;;;;;;5021011;28;20034;-79
2021/06/30 07:05:17;;;;;;;2.08;1.08;;;16.40;99.90;;;;;;5034273;28;20033;-80
2021/06/30 07:07:45;;;;;;;2.42;1.40;;;16.40;99.90;;;;;;5016911;28;20034;-80
2021/06/30 07:10:12;;;;;;;3.83;1.08;;;16.30;99.90;;;;;;5015566;28;20041;-78
2021/06/30 07:12:39;;;;;;;3.92;1.70;;;16.10;99.90;;;;;;4997395;28;20391;-81
2021/06/30 07:15:06;;;;;;;4.35;1.80;;;15.90;99.90;;;;;;5031854;28;20029;-77
2021/06/30 07:17:37;;;;;;;6.88;2.45;;;15.70;99.90;;;;;;4980920;28;20046;-77
2021/06/30 07:20:05;;;;;;;5.80;3.00;;;15.60;99.90;;;;;;5027923;28;20356;-76
2021/06/30 07:22:31;;;;;;;4.50;2.60;;;15.40;99.90;;;;;;5026240;28;20045;-77
2021/06/30 07:24:57;;;;;;;3.50;2.40;;;15.30;99.90;;;;;;5039025;28;20048;-78
2021/06/30 07:27:24;;;;;;;5.78;2.75;;;15.20;99.90;;;;;;5026630;28;20523;-78
2021/06/30 07:29:50;;;;;;;3.25;2.17;;;15.20;99.90;;;;;;5044824;28;20041;-78
2021/06/30 07:32:16;;;;;;;3.92;2.60;;;15.10;99.90;;;;;;5047491;28;20038;-78
2021/06/30 07:34:43;;;;;;;5.57;3.50;;;15.10;99.90;;;;;;5037133;28;20382;-79
2021/06/30 07:37:09;;;;;;;4.30;3.30;;;15.20;99.90;;;;;;5021658;28;20033;-78
2021/06/30 07:39:36;;;;;;;4.80;4.10;;;15.30;99.90;;;;;;5034423;28;20060;-76
2021/06/30 07:42:02;;;;;;;6.05;3.50;;;15.50;99.90;;;;;;5026404;28;20060;-75
2021/06/30 07:44:29;;;;;;;6.85;3.85;;;15.40;99.90;;;;;;5043082;28;20391;-77
2021/06/30 07:46:55;;;;;;;4.05;3.50;;;15.40;99.90;;;;;;5041773;28;20034;-76
2021/06/30 07:49:22;;;;;;;6.43;3.80;;;15.30;99.90;;;;;;5036768;28;20041;-77
2021/06/30 07:51:50;;;;;;;5.88;2.65;;;15.30;99.90;;;;;;5036625;28;20044;-76
2021/06/30 07:54:17;;;;;;;4.82;2.95;;;15.30;99.90;;;;;;5015690;28;20034;-76
2021/06/30 07:56:44;;;;;;;4.10;2.50;;;15.50;99.90;;;;;;5032785;28;20068;-76
2021/06/30 07:59:11;;;;;;;3.55;2.20;;;15.50;99.90;;;;;;5034544;28;20033;-76
2021/06/30 08:01:39;;;;;;;2.78;1.85;;;15.50;99.90;;;;;;5032388;28;20044;-76
2021/06/30 08:04:06;;;;;;;2.15;1.40;;;15.50;99.90;;;;;;5024692;28;20033;-76
2021/06/30 08:06:34;;;;;;;2.97;1.88;;;15.60;99.90;;;;;;5030049;28;20033;-76
2021/06/30 08:09:00;;;;;;;3.58;2.08;;;15.60;99.90;;;;;;5014217;28;20038;-76
2021/06/30 08:11:26;;;;;;;3.83;1.70;;;15.80;99.90;;;;;;5032792;28;20044;-76
2021/06/30 08:13:53;;;;;;;5.13;1.77;;;15.80;99.90;;;;;;5020962;28;20034;-76
2021/06/30 08:16:21;;;;;;;4.88;2.45;;;15.70;99.90;;;;;;5020138;28;20069;-77
2021/06/30 08:18:48;;;;;;;5.32;2.40;;;15.90;99.90;;;;;;5013882;28;20046;-77
2021/06/30 08:21:23;;;;;;;3.80;1.95;;;16.00;99.90;;;;;;5013987;28;20391;-77
2021/06/30 08:23:51;;;;;;;1.92;1.08;;;16.30;99.90;;;;;;5020824;28;20040;-77
2021/06/30 08:26:17;;;;;;;1.75;1.15;;;16.60;99.90;;;;;;5018809;28;20034;-77
2021/06/30 08:28:44;;;;;;;2.53;1.35;;;16.80;99.90;;;;;;5013510;28;20458;-76
2021/06/30 08:31:10;;;;;;;3.50;1.55;;;16.90;99.90;;;;;;5028059;28;20050;-76
2021/06/30 08:33:36;;;;;;;1.95;1.45;;;17.00;99.90;;;;;;5017128;28;20368;-76
2021/06/30 08:36:04;;;;;;;2.28;1.00;;;17.20;99.90;;;;;;5017556;28;20313;-77
2021/06/30 08:38:30;;;;;;;1.73;1.20;;;17.50;99.90;;;;;;5022045;28;20036;-77
2021/06/30 08:40:58;;;;;;;2.85;1.33;;;17.40;99.90;;;;;;5015851;28;20030;-77
2021/06/30 08:43:25;;;;;;;3.00;0.90;;;17.70;99.90;;;;;;5032748;28;20040;-76
2021/06/30 08:45:51;;;;;;;2.13;1.38;;;18.00;99.90;;;;;;5032210;28;20037;-77
2021/06/30 08:48:19;;;;;;;2.13;0.98;;;18.20;99.90;;;;;;5032074;28;20037;-77
2021/06/30 08:50:46;;;;;;;3.58;1.15;;;17.90;99.90;;;;;;5032809;28;20033;-76
2021/06/30 08:53:14;;;;;;;2.63;1.27;;;17.80;99.90;;;;;;5018426;28;20046;-77
2021/06/30 08:55:45;;;;;;;3.35;1.42;;;18.00;99.90;;;;;;5015375;28;20463;-77
2021/06/30 08:58:12;;;;;;;2.83;1.20;;;17.80;99.90;;;;;;5031817;28;20049;-77
2021/06/30 09:00:41;;;;;;;3.38;1.00;;;17.60;99.90;;;;;;4995952;28;20045;-78
2021/06/30 09:03:15;;;;;;;1.52;1.15;;;18.20;99.90;;;;;;5022302;28;20030;-77
2021/06/30 09:08:42;;;;;;;1.52;0.80;;;18.60;99.90;;;;;;5032157;28;20379;-78
2021/06/30 09:11:13;;;;;;;2.35;0.73;;;18.20;99.90;;;;;;5020023;28;20057;-78
2021/06/30 09:13:39;;;;;;;;;;;18.10;99.90;;;;;;5016857;28;20399;-78
2021/06/30 09:16:06;;;;;;;4.03;1.30;;;17.90;99.90;;;;;;5026665;28;19920;-78
2021/06/30 09:18:36;;;;;;;2.05;0.70;;;18.20;99.90;;;;;;5031738;28;20029;-78
2021/06/30 09:21:21;;;;;;;1.25;0.90;;;18.50;99.90;;;;;;5016530;28;20038;-78
2021/06/30 09:24:08;;;;;;;3.08;1.35;;;18.40;99.90;;;;;;5024918;28;20463;-79
2021/06/30 09:26:37;;;;;;;2.72;1.33;;;18.50;99.90;;;;;;5038833;28;20455;-79
2021/06/30 09:29:10;;;;;;;2.42;1.38;;;18.40;99.90;;;;;;5037107;28;20045;-79
2021/06/30 09:31:43;;;;;;;2.72;1.33;;;19.10;99.90;;;;;;5013775;28;20041;-82
2021/06/30 09:34:10;;;;;;;2.50;1.33;;;18.90;99.90;;;;;;5013983;28;20026;-80
2021/06/30 09:36:57;;;;;;;4.45;1.60;;;18.50;99.90;;;;;;5021379;28;20025;-80
2021/06/30 09:39:25;;;;;;;6.78;1.90;;;18.60;99.90;;;;;;5032079;28;20029;-80
2021/06/30 09:42:12;;;;;;;1.98;1.10;;;18.80;99.90;;;;;;5032525;28;20033;-80
2021/06/30 09:44:42;;;;;;;2.10;0.98;;;18.90;99.90;;;;;;5017286;28;20050;-80
2021/06/30 09:47:09;;;;;;;1.17;0.70;;;18.60;99.90;;;;;;5019792;28;20041;-79
2021/06/30 09:49:37;;;;;;;1.25;0.70;;;18.10;99.90;;;;;;5030907;28;20500;-79
2021/06/30 09:52:05;;;;;;;2.50;0.80;;;17.90;99.90;;;;;;5022023;28;20030;-81
2021/06/30 09:54:32;;;;;;;1.83;0.85;;;17.60;99.90;;;;;;5017541;28;20030;-81
2021/06/30 09:57:13;;;;;;;1.70;0.60;;;17.80;99.90;;;;;;5024413;28;20042;-81
2021/06/30 09:59:41;;;;;;;1.23;0.85;;;17.70;99.90;;;;;;5039268;28;20032;-81
2021/06/30 10:02:17;;;;;;;2.95;0.50;;;17.80;99.90;;;;;;5041375;28;20486;-77
2021/06/30 10:04:47;;;;;;;1.27;0.43;;;17.90;99.90;;;;;;5048326;28;20026;-80
2021/06/30 10:07:22;;;;;;;1.80;0.55;;;18.20;99.90;;;;;;5048145;28;20060;-80
2021/06/30 10:09:51;;;;;;;1.20;0.40;;;18.50;99.90;;;;;;5047633;28;20483;-80
2021/06/30 10:12:23;;;;;;;1.83;0.52;;;19.00;99.90;;;;;;5034831;28;20044;-80
2021/06/30 10:14:51;;;;;;;2.22;0.80;;;19.30;99.90;;;;;;5049476;28;20036;-80
2021/06/30 10:17:19;;;;;;;0.73;0.43;;;19.60;99.90;;;;;;5047578;28;20044;-83
2021/06/30 10:19:47;;;;;;;2.10;0.80;;;20.60;99.90;;;;;;5032350;28;20045;-82
2021/06/30 10:22:14;;;;;;;3.22;0.70;;;21.40;99.90;;;;;;5046354;28;20040;-80
2021/06/30 10:24:41;;;;;;;1.75;0.50;;;21.50;99.90;;;;;;5047087;28;20037;-82
2021/06/30 10:27:09;;;;;;;1.25;0.60;;;21.30;99.90;;;;;;5045805;28;20041;-79
2021/06/30 10:29:42;;;;;;;2.05;0.82;;;20.80;99.90;;;;;;5033870;28;20045;-83
2021/06/30 10:32:11;;;;;;;1.73;0.70;;;20.70;99.90;;;;;;5046959;28;20058;-80
2021/06/30 10:34:40;;;;;;;1.42;0.60;;;20.70;99.90;;;;;;5025863;28;20041;-84
2021/06/30 10:37:29;;;;;;;1.95;0.63;;;20.20;99.90;;;;;;5045447;28;20052;-81
2021/06/30 10:40:05;;;;;;;2.35;0.57;;;20.30;99.90;;;;;;5047088;28;20048;-80
2021/06/30 10:42:38;;;;;;;1.10;0.60;;;20.70;99.90;;;;;;5034130;28;20046;-79
2021/06/30 10:45:18;;;;;;;1.13;0.60;;;21.10;99.90;;;;;;5045887;28;20047;-79
2021/06/30 10:47:54;;;;;;;2.75;0.73;;;21.30;99.70;;;;;;5046403;28;20056;-78
2021/06/30 10:50:24;;;;;;;1.70;0.70;;;21.20;98.80;;;;;;5044677;28;20045;-77
2021/06/30 10:52:56;;;;;;;1.15;0.52;;;20.80;99.00;;;;;;5044144;28;20033;-77
2021/06/30 10:55:32;;;;;;;1.35;0.60;;;20.70;98.30;;;;;;5025882;28;20034;-77
2021/06/30 10:58:16;;;;;;;1.40;0.50;;;21.20;99.80;;;;;;5041582;28;20037;-78
2021/06/30 11:01:05;;;;;;;3.47;0.73;;;21.60;97.80;;;;;;5035846;28;20052;-78
2021/06/30 11:03:36;;;;;;;1.33;0.50;;;21.90;97.10;;;;;;5023813;28;20040;-79
2021/06/30 11:08:42;;;;;;;1.33;0.70;;;22.10;96.10;;;;;;5016783;28;20041;-77
2021/06/30 11:11:14;;;;;;;0.70;0.40;;;21.70;96.50;;;;;;5024079;28;20042;-77
2021/06/30 11:13:52;;;;;;;1.65;0.50;;;22.00;95.10;;;;;;5023641;28;20050;-77
2021/06/30 11:16:37;;;;;;;1.05;0.47;;;22.30;94.90;;;;;;5030211;28;20042;-77
2021/06/30 11:19:23;;;;;;;3.17;0.60;;;22.00;94.70;;;;;;5015325;28;20487;-77
2021/06/30 11:22:11;;;;;;;2.45;0.60;;;22.50;93.70;;;;;;5023205;28;20036;-79
2021/06/30 11:27:17;;;;;;;4.10;0.82;;;22.10;94.60;;;;;;5015265;28;20045;-77
2021/06/30 11:30:03;;;;;;;1.90;0.57;;;21.90;93.60;;;;;;5015064;28;20061;-77
2021/06/30 11:32:34;;;;;;;1.60;0.60;;;21.90;93.40;;;;;;5022308;28;20042;-81
2021/06/30 11:35:10;;;;;;;1.77;0.50;;;21.60;93.70;;;;;;5031831;28;20097;-78
2021/06/30 11:37:38;;;;;;;3.35;0.40;;;21.50;93.90;;;;;;5014592;28;20034;-79
2021/06/30 11:40:13;;;;;;;4.65;0.57;;;21.50;93.70;;;;;;5028209;28;20049;-78
2021/06/30 11:42:45;;;;;;;1.92;0.60;;;21.60;93.10;;;;;;5033464;28;20046;-77
2021/06/30 11:45:29;;;;;;;3.42;0.60;;;21.40;94.30;;;;;;5033477;28;20049;-77
2021/06/30 11:47:58;;;;;;;4.70;0.90;;;21.30;93.90;;;;;;5017998;28;20064;-78
2021/06/30 11:50:31;;;;;;;1.02;0.38;;;21.80;93.50;;;;;;5014091;28;20046;-79
2021/06/30 11:52:59;;;;;;;1.27;0.60;;;21.80;92.90;;;;;;5021603;28;20056;-78
2021/06/30 11:55:26;;;;;;;2.90;0.70;;;21.50;93.00;;;;;;5013693;28;20041;-78
2021/06/30 11:57:54;;;;;;;3.10;0.75;;;21.90;92.10;;;;;;5032441;28;20014;-79
2021/06/30 12:00:22;;;;;;;2.67;0.80;;;21.80;92.50;;;;;;5043318;28;20038;-82
2021/06/30 12:02:50;;;;;;;1.10;0.40;;;21.60;92.50;;;;;;5050154;28;20033;-79
2021/06/30 12:05:19;;;;;;;2.80;0.75;;;21.60;93.30;;;;;;5031048;28;20042;-77
2021/06/30 12:07:47;;;;;;;1.10;0.50;;;21.50;93.20;;;;;;5025057;28;20059;-79
2021/06/30 12:10:14;;;;;;;2.05;0.77;;;21.50;93.60;;;;;;5032982;28;20514;-78
2021/06/30 12:12:42;;;;;;;1.35;0.50;;;21.70;93.30;;;;;;5025007;28;20030;-81
2021/06/30 12:15:10;;;;;;;1.70;0.50;;;21.60;92.20;;;;;;5018280;28;20057;-79
2021/06/30 12:17:37;;;;;;;3.08;1.17;;;21.00;93.10;;;;;;5024917;28;20050;-80
2021/06/30 12:20:06;;;;;;;2.05;0.43;;;20.90;93.80;;;;;;5031616;28;20398;-79
2021/06/30 12:22:37;;;;;;;1.25;0.50;;;21.00;93.40;;;;;;5029226;28;20033;-79
2021/06/30 12:25:03;;;;;;;2.17;0.70;;;20.80;93.80;;;;;;5037595;28;20033;-81
2021/06/30 12:27:36;;;;;;;3.53;0.60;;;20.60;94.70;;;;;;5025539;28;20391;-79
2021/06/30 12:30:39;;;;;;;1.80;0.52;;;20.60;93.90;;;;;;5027894;28;20034;-79
2021/06/30 12:33:10;;;;;;;1.30;0.60;;;20.70;94.10;;;;;;5031198;28;20057;-79
2021/06/30 12:35:40;;;;;;;0.93;0.50;;;20.60;92.70;;;;;;5034229;28;20045;-79
2021/06/30 12:38:14;;;;;;;3.00;0.65;;;20.70;93.00;;;;;;5016283;28;20475;-79
2021/06/30 12:40:41;;;;;;;2.83;0.80;;;20.90;92.30;;;;;;5036273;28;20045;-77
2021/06/30 12:43:19;;;;;;;1.67;0.90;;;20.90;91.60;;;;;;5036704;28;20038;-79
2021/06/30 12:45:53;;;;;;;3.30;0.70;;;20.90;93.20;;;;;;5015713;28;20056;-79
2021/06/30 12:48:20;;;;;;;1.50;0.93;;;21.40;92.70;;;;;;5032894;28;20060;-80
2021/06/30 12:51:11;;;;;;;2.80;0.80;;;21.40;92.50;;;;;;5032346;28;20029;-79
2021/06/30 12:53:42;;;;;;;1.85;0.60;;;21.50;92.90;;;;;;5024401;28;20061;-80
2021/06/30 12:56:18;;;;;;;4.20;0.65;;;21.30;91.70;;;;;;5032744;28;20537;-79